createdAt,value
2023-09-08T00:01:25.143Z,63.10
2023-09-08T00:03:52.984Z,63.60
2023-09-08T00:06:21.120Z,64.80
2023-09-08T00:08:48.928Z,65.20
2023-09-08T00:11:16.736Z,65.30
2023-09-08T00:13:44.536Z,64.50
2023-09-08T00:16:12.426Z,65.30
2023-09-08T00:18:41.676Z,64.70
2023-09-08T00:21:09.466Z,63.70
2023-09-08T00:23:39.293Z,65.20
2023-09-08T00:26:07.063Z,63.60
2023-09-08T00:28:35.193Z,63.30
2023-09-08T00:31:03.394Z,63.00
2023-09-08T00:33:31.199Z,63.30
2023-09-08T00:36:00.388Z,63.10
2023-09-08T00:38:28.245Z,63.30
2023-09-08T00:40:56.106Z,63.50
2023-09-08T00:43:23.985Z,63.60
2023-09-08T00:45:52.188Z,63.40
2023-09-08T00:48:20.244Z,63.70
2023-09-08T00:50:49.202Z,64.90
2023-09-08T00:53:17.034Z,65.00
2023-09-08T00:55:46.434Z,64.90
2023-09-08T00:58:15.913Z,63.80
2023-09-08T01:00:43.700Z,63.60
2023-09-08T01:03:11.568Z,63.60
2023-09-08T01:05:39.925Z,63.50
2023-09-08T01:08:09.170Z,63.60
2023-09-08T01:10:38.570Z,65.10
2023-09-08T01:13:07.783Z,65.20
2023-09-08T01:15:35.569Z,65.00
2023-09-08T01:18:03.486Z,65.40
2023-09-08T01:20:58.852Z,65.30
2023-09-08T01:23:39.298Z,66.00
2023-09-08T01:26:12.629Z,65.90
2023-09-08T01:28:42.430Z,66.10
2023-09-08T01:31:11.005Z,65.50
2023-09-08T01:33:39.352Z,65.70
2023-09-08T01:36:07.448Z,65.80
2023-09-08T01:38:36.199Z,65.40
2023-09-08T01:41:04.311Z,65.70
2023-09-08T01:43:32.177Z,65.40
2023-09-08T01:46:00.054Z,65.70
2023-09-08T01:48:27.904Z,65.50
2023-09-08T01:50:55.704Z,65.40
2023-09-08T01:53:23.589Z,65.20
2023-09-08T01:55:51.487Z,65.00
2023-09-08T01:58:19.536Z,65.40
2023-09-08T02:00:53.372Z,65.00
2023-09-08T02:03:21.366Z,65.10
2023-09-08T02:05:49.370Z,65.50
2023-09-08T02:08:17.194Z,65.10
2023-09-08T02:10:45.021Z,65.00
2023-09-08T02:13:12.853Z,64.90
2023-09-08T02:15:40.858Z,64.90
2023-09-08T02:18:09.525Z,64.50
2023-09-08T02:20:37.985Z,64.80
2023-09-08T02:23:08.435Z,64.80
2023-09-08T02:25:36.323Z,64.70
2023-09-08T02:28:04.467Z,64.60
2023-09-08T02:30:32.487Z,64.60
2023-09-08T02:33:00.408Z,65.10
2023-09-08T02:35:28.458Z,65.30
2023-09-08T02:37:56.487Z,65.00
2023-09-08T02:40:24.344Z,65.00
2023-09-08T02:42:52.301Z,65.40
2023-09-08T02:45:20.172Z,65.70
2023-09-08T02:47:48.057Z,66.60
2023-09-08T02:50:16.393Z,66.00
2023-09-08T02:52:44.148Z,65.90
2023-09-08T02:55:13.166Z,66.00
2023-09-08T02:57:41.565Z,66.60
2023-09-08T03:00:09.821Z,66.50
2023-09-08T03:02:37.824Z,66.60
2023-09-08T03:05:06.015Z,67.00
2023-09-08T03:07:35.330Z,66.70
2023-09-08T03:10:04.648Z,66.50
2023-09-08T03:12:32.544Z,66.80
2023-09-08T03:15:02.231Z,66.90
2023-09-08T03:17:30.053Z,66.80
2023-09-08T03:19:57.914Z,67.20
2023-09-08T03:22:26.491Z,66.90
2023-09-08T03:24:54.964Z,66.80
2023-09-08T03:27:22.857Z,66.70
2023-09-08T03:29:50.664Z,66.50
2023-09-08T03:32:18.883Z,66.60
2023-09-08T03:34:46.824Z,66.60
2023-09-08T03:37:14.690Z,67.10
2023-09-08T03:39:45.806Z,67.20
2023-09-08T03:42:14.694Z,67.20
2023-09-08T03:44:42.457Z,67.10
2023-09-08T03:47:10.358Z,67.40
2023-09-08T03:49:38.171Z,67.30
2023-09-08T03:52:06.157Z,67.30
2023-09-08T03:54:35.516Z,67.30
2023-09-08T03:57:03.366Z,67.20
2023-09-08T03:59:31.158Z,67.10
2023-09-08T04:01:59.060Z,67.20
2023-09-08T04:04:26.856Z,67.00
2023-09-08T04:06:54.617Z,67.00
2023-09-08T04:09:22.799Z,66.50
2023-09-08T04:11:50.626Z,66.90
2023-09-08T04:14:18.410Z,67.00
2023-09-08T04:16:46.216Z,66.90
2023-09-08T04:19:14.048Z,67.00
2023-09-08T04:21:43.133Z,66.80
2023-09-08T04:24:12.158Z,67.40
2023-09-08T04:26:39.975Z,67.60
2023-09-08T04:29:07.819Z,67.60
2023-09-08T04:31:35.765Z,67.20
2023-09-08T04:34:03.616Z,67.80
2023-09-08T04:36:32.197Z,67.40
2023-09-08T04:39:00.053Z,67.30
2023-09-08T04:41:27.860Z,67.00
2023-09-08T04:43:57.095Z,67.10
2023-09-08T04:46:24.969Z,67.20
2023-09-08T04:48:52.761Z,67.10
2023-09-08T04:51:20.621Z,67.10
2023-09-08T04:53:48.518Z,67.70
2023-09-08T04:56:16.459Z,68.40
2023-09-08T04:58:44.258Z,67.90
2023-09-08T05:01:12.242Z,68.10
2023-09-08T05:03:40.259Z,68.30
2023-09-08T05:06:15.321Z,68.40
2023-09-08T05:08:43.161Z,68.50
2023-09-08T05:11:11.327Z,68.60
2023-09-08T05:13:39.073Z,68.50
2023-09-08T05:16:13.616Z,68.20
2023-09-08T05:18:42.579Z,68.40
2023-09-08T05:21:10.541Z,68.40
2023-09-08T05:23:38.359Z,68.70
2023-09-08T05:26:06.065Z,68.80
2023-09-08T05:28:34.988Z,68.50
2023-09-08T05:31:05.729Z,68.40
2023-09-08T05:33:33.733Z,68.70
2023-09-08T05:36:01.388Z,68.50
2023-09-08T05:38:30.380Z,68.60
2023-09-08T05:40:58.767Z,68.70
2023-09-08T05:43:27.619Z,68.70
2023-09-08T05:45:55.498Z,68.40
2023-09-08T05:48:23.287Z,68.50
2023-09-08T05:50:51.213Z,68.10
2023-09-08T05:53:19.106Z,68.30
2023-09-08T05:55:47.215Z,68.30
2023-09-08T05:58:15.038Z,68.10
2023-09-08T06:00:43.125Z,68.20
2023-09-08T06:03:11.203Z,68.50
2023-09-08T06:05:39.239Z,67.00
2023-09-08T06:08:08.070Z,66.70
2023-09-08T06:10:36.463Z,66.30
2023-09-08T06:13:04.398Z,66.10
2023-09-08T06:15:32.384Z,66.10
2023-09-08T06:18:00.431Z,65.90
2023-09-08T06:20:28.872Z,66.10
2023-09-08T06:22:56.847Z,65.60
2023-09-08T06:25:25.724Z,66.00
2023-09-08T06:27:53.606Z,65.90
2023-09-08T06:30:21.517Z,65.90
2023-09-08T06:32:49.607Z,65.80
2023-09-08T06:35:18.399Z,66.00
2023-09-08T06:37:46.356Z,65.90
2023-09-08T06:40:14.875Z,65.20
2023-09-08T06:42:42.833Z,64.00
2023-09-08T06:45:11.177Z,63.90
2023-09-08T06:47:39.244Z,63.60
2023-09-08T06:50:08.468Z,63.40
2023-09-08T06:52:36.277Z,63.10
2023-09-08T06:55:04.373Z,63.30
2023-09-08T06:57:32.267Z,63.30
2023-09-08T07:00:00.052Z,62.40
2023-09-08T07:02:28.790Z,62.20
2023-09-08T07:04:57.043Z,62.40
2023-09-08T07:07:25.243Z,62.20
2023-09-08T07:09:53.053Z,61.80
2023-09-08T07:12:23.835Z,61.70
2023-09-08T07:14:51.961Z,61.10
2023-09-08T07:17:19.766Z,61.00
2023-09-08T07:19:47.640Z,60.90
2023-09-08T07:22:15.473Z,61.30
2023-09-08T07:24:43.383Z,60.70
2023-09-08T07:27:11.276Z,60.80
2023-09-08T07:29:39.044Z,60.20
2023-09-08T07:32:07.189Z,59.80
2023-09-08T07:34:34.965Z,60.30
2023-09-08T07:37:03.291Z,59.70
2023-09-08T07:39:31.752Z,59.40
2023-09-08T07:42:02.183Z,59.30
2023-09-08T07:44:30.418Z,59.30
2023-09-08T07:46:58.327Z,59.70
2023-09-08T07:49:26.209Z,58.20
2023-09-08T07:51:54.049Z,58.10
2023-09-08T07:54:21.925Z,58.40
2023-09-08T07:56:49.737Z,58.10
2023-09-08T07:59:17.645Z,58.10
2023-09-08T08:01:47.902Z,57.70
2023-09-08T08:04:15.755Z,57.10
2023-09-08T08:06:43.583Z,56.90
2023-09-08T08:09:11.916Z,56.80
2023-09-08T08:11:39.588Z,56.60
2023-09-08T08:14:07.547Z,56.10
2023-09-08T08:16:36.404Z,55.40
2023-09-08T08:19:04.870Z,55.30
2023-09-08T08:21:32.971Z,55.00
2023-09-08T08:24:00.847Z,54.70
2023-09-08T08:26:31.632Z,54.00
2023-09-08T08:28:59.387Z,53.60
2023-09-08T08:31:27.353Z,53.60
2023-09-08T08:33:55.358Z,53.10
2023-09-08T08:36:23.193Z,52.50
2023-09-08T08:38:51.296Z,52.20
2023-09-08T08:41:19.250Z,52.20
2023-09-08T08:43:49.025Z,52.30
2023-09-08T08:46:18.352Z,52.10
2023-09-08T08:48:47.309Z,51.90
2023-09-08T08:51:16.614Z,52.50
2023-09-08T08:53:44.648Z,52.00
2023-09-08T08:56:12.607Z,52.20
2023-09-08T08:58:43.119Z,52.00
2023-09-08T09:01:14.048Z,51.80
2023-09-08T09:03:43.165Z,51.80
2023-09-08T09:06:12.201Z,51.60
2023-09-08T09:08:41.980Z,52.00
2023-09-08T09:11:09.996Z,51.50
2023-09-08T09:13:38.800Z,51.60
2023-09-08T09:16:12.148Z,51.70
2023-09-08T09:19:00.669Z,51.90
2023-09-08T09:21:52.174Z,50.60
2023-09-08T09:24:35.251Z,50.50
2023-09-08T09:27:03.680Z,50.20
2023-09-08T09:29:33.329Z,50.30
2023-09-08T09:32:05.736Z,50.80
2023-09-08T09:34:34.042Z,50.20
2023-09-08T09:37:02.505Z,50.20
2023-09-08T09:39:30.290Z,48.90
2023-09-08T09:41:59.140Z,46.40
2023-09-08T09:44:27.486Z,47.90
2023-09-08T09:46:56.025Z,47.50
2023-09-08T09:49:25.393Z,47.90
2023-09-08T09:51:56.122Z,47.70
2023-09-08T09:54:24.123Z,47.10
2023-09-08T09:56:53.288Z,46.90
2023-09-08T09:59:23.264Z,47.50
2023-09-08T10:01:51.716Z,47.40
2023-09-08T10:04:20.524Z,47.80
2023-09-08T10:06:49.060Z,47.30
2023-09-08T10:09:17.885Z,47.90
2023-09-08T10:11:50.073Z,48.10
2023-09-08T10:14:20.308Z,49.60
2023-09-08T10:16:54.164Z,49.80
2023-09-08T10:19:24.081Z,48.60
2023-09-08T10:21:56.529Z,48.10
2023-09-08T10:24:27.860Z,47.50
2023-09-08T10:27:14.242Z,49.00
2023-09-08T10:29:42.363Z,48.30
2023-09-08T10:32:11.708Z,48.40
2023-09-08T10:34:41.495Z,49.20
2023-09-08T10:37:27.340Z,48.50
2023-09-08T10:39:55.759Z,47.80
2023-09-08T10:42:26.990Z,48.10
2023-09-08T10:45:00.372Z,48.50
2023-09-08T10:47:35.794Z,48.10
2023-09-08T10:50:04.493Z,48.00
2023-09-08T10:52:34.939Z,48.60
2023-09-08T10:55:03.235Z,48.20
2023-09-08T10:57:35.136Z,48.00
2023-09-08T11:00:13.884Z,48.70
2023-09-08T11:02:52.241Z,48.80
2023-09-08T11:05:21.994Z,47.20
2023-09-08T11:07:55.444Z,47.80
2023-09-08T11:10:23.599Z,47.30
2023-09-08T11:12:52.989Z,47.10
2023-09-08T11:15:21.999Z,46.70
2023-09-08T11:17:52.744Z,46.70
2023-09-08T11:20:29.169Z,46.70
2023-09-08T11:22:57.455Z,47.10
2023-09-08T11:25:25.610Z,46.90
2023-09-08T11:27:53.678Z,46.50
2023-09-08T11:30:22.589Z,46.80
2023-09-08T11:32:50.713Z,46.70
2023-09-08T11:35:22.425Z,46.80
2023-09-08T11:37:53.810Z,46.40
2023-09-08T11:40:23.403Z,45.90
2023-09-08T11:42:51.265Z,46.20
2023-09-08T11:45:22.772Z,45.50
2023-09-08T11:47:51.626Z,45.20
2023-09-08T11:50:20.700Z,44.40
2023-09-08T11:52:50.538Z,44.80
2023-09-08T11:55:20.127Z,43.60
2023-09-08T11:57:51.834Z,45.10
2023-09-08T12:00:24.253Z,44.50
2023-09-08T12:02:52.299Z,43.80
2023-09-08T12:05:24.447Z,43.50
2023-09-08T12:08:00.433Z,43.00
2023-09-08T12:10:28.631Z,43.60
2023-09-08T12:13:01.829Z,43.70
2023-09-08T12:15:38.077Z,43.90
2023-09-08T12:18:11.534Z,43.20
2023-09-08T12:20:41.004Z,42.60
2023-09-08T12:23:23.726Z,43.30
2023-09-08T12:25:54.419Z,42.10
2023-09-08T12:28:23.843Z,42.50
2023-09-08T12:30:52.189Z,43.00
2023-09-08T12:33:22.284Z,42.10
2023-09-08T12:35:52.722Z,40.40
2023-09-08T12:38:21.277Z,42.00
2023-09-08T12:40:50.484Z,41.50
2023-09-08T12:43:28.067Z,40.90
2023-09-08T12:45:57.994Z,40.60
2023-09-08T12:48:26.777Z,39.60
2023-09-08T12:50:54.653Z,39.50
2023-09-08T12:53:25.053Z,39.40
2023-09-08T12:55:53.175Z,39.00
2023-09-08T12:58:21.021Z,38.30
2023-09-08T13:00:49.834Z,38.20
2023-09-08T13:03:17.848Z,38.90
2023-09-08T13:05:45.752Z,39.50
2023-09-08T13:08:16.894Z,38.10
2023-09-08T13:10:45.160Z,37.10
2023-09-08T13:13:13.384Z,38.90
2023-09-08T13:15:41.408Z,38.20
2023-09-08T13:18:09.276Z,38.30
2023-09-08T13:20:37.471Z,37.80
2023-09-08T13:23:06.014Z,38.90
2023-09-08T13:25:34.149Z,38.80
2023-09-08T13:28:02.421Z,37.70
2023-09-08T13:30:31.014Z,39.00
2023-09-08T13:32:59.172Z,39.60
2023-09-08T13:35:27.507Z,39.60
2023-09-08T13:37:56.296Z,39.50
2023-09-08T13:40:24.660Z,39.40
2023-09-08T13:42:52.693Z,38.00
2023-09-08T13:45:20.892Z,39.10
2023-09-08T13:47:50.532Z,38.00
2023-09-08T13:50:21.283Z,39.10
2023-09-08T13:52:51.473Z,37.10
2023-09-08T13:55:36.806Z,37.60
2023-09-08T13:58:08.811Z,38.30
2023-09-08T14:00:45.124Z,38.30
2023-09-08T14:03:15.562Z,37.60
2023-09-08T14:05:47.592Z,37.80
2023-09-08T14:08:28.328Z,37.40
2023-09-08T14:13:28.941Z,38.30
2023-09-08T14:15:59.375Z,38.30
2023-09-08T14:18:28.696Z,38.10
2023-09-08T14:20:56.528Z,37.70
2023-09-08T14:23:24.571Z,37.80
2023-09-08T14:25:52.684Z,38.50
2023-09-08T14:28:20.852Z,39.10
2023-09-08T14:30:51.468Z,38.40
2023-09-08T14:33:19.658Z,38.80
2023-09-08T14:35:53.158Z,38.80
2023-09-08T14:38:22.034Z,38.60
2023-09-08T14:41:03.812Z,39.10
2023-09-08T14:43:31.976Z,37.90
2023-09-08T14:45:59.881Z,38.60
2023-09-08T14:48:28.838Z,38.70
2023-09-08T14:50:58.825Z,38.60
2023-09-08T14:53:26.878Z,38.30
2023-09-08T14:55:59.256Z,38.60
2023-09-08T14:58:33.094Z,39.00
2023-09-08T15:01:05.403Z,38.70
2023-09-08T15:03:34.370Z,38.30
2023-09-08T15:06:02.801Z,38.80
2023-09-08T15:08:31.118Z,38.30
2023-09-08T15:10:59.048Z,38.50
2023-09-08T15:13:27.460Z,38.10
2023-09-08T15:15:55.502Z,38.20
2023-09-08T15:18:25.667Z,38.70
2023-09-08T15:20:55.449Z,39.10
2023-09-08T15:23:23.833Z,39.00
2023-09-08T15:25:58.437Z,38.70
2023-09-08T15:28:27.483Z,38.80
2023-09-08T15:30:56.912Z,38.00
2023-09-08T15:33:25.943Z,39.10
2023-09-08T15:35:58.115Z,39.50
2023-09-08T15:38:26.001Z,39.50
2023-09-08T15:41:19.225Z,39.20
2023-09-08T15:43:49.981Z,39.80
2023-09-08T15:46:18.465Z,39.80
2023-09-08T15:48:46.664Z,39.50
2023-09-08T15:51:15.189Z,38.60
2023-09-08T15:53:43.204Z,38.70
2023-09-08T15:56:11.126Z,38.60
2023-09-08T15:58:39.665Z,39.30
2023-09-08T16:01:08.975Z,39.80
2023-09-08T16:03:37.476Z,40.30
2023-09-08T16:06:05.877Z,39.80
2023-09-08T16:08:34.548Z,39.70
2023-09-08T16:11:03.257Z,39.90
2023-09-08T16:13:34.465Z,39.30
2023-09-08T16:16:02.901Z,39.80
2023-09-08T16:18:32.372Z,40.20
2023-09-08T16:21:00.534Z,40.80
2023-09-08T16:23:28.626Z,40.30
2023-09-08T16:25:56.492Z,40.50
2023-09-08T16:28:24.939Z,40.60
2023-09-08T16:30:53.341Z,40.80
2023-09-08T16:33:21.340Z,40.30
2023-09-08T16:35:49.578Z,40.90
2023-09-08T16:38:17.604Z,40.70
2023-09-08T16:40:47.301Z,41.00
2023-09-08T16:43:18.111Z,42.00
2023-09-08T16:45:46.284Z,41.90
2023-09-08T16:48:15.261Z,42.20
2023-09-08T16:50:43.265Z,41.90
2023-09-08T16:53:11.043Z,41.70
2023-09-08T16:55:38.973Z,41.50
2023-09-08T16:58:07.266Z,41.80
2023-09-08T17:00:35.464Z,42.00
2023-09-08T17:03:03.181Z,42.30
2023-09-08T17:05:31.139Z,42.30
2023-09-08T17:07:59.020Z,42.50
2023-09-08T17:10:26.893Z,42.50
2023-09-08T17:12:54.758Z,42.40
2023-09-08T17:15:25.585Z,42.90
2023-09-08T17:17:53.340Z,42.90
2023-09-08T17:20:21.516Z,43.50
2023-09-08T17:22:49.468Z,43.50
2023-09-08T17:25:17.365Z,43.70
2023-09-08T17:27:45.528Z,43.40
2023-09-08T17:30:13.754Z,43.40
2023-09-08T17:32:41.674Z,42.40
2023-09-08T17:35:10.132Z,42.70
2023-09-08T17:37:38.464Z,42.90
2023-09-08T17:40:07.466Z,42.70
2023-09-08T17:42:35.387Z,42.90
2023-09-08T17:45:05.587Z,43.30
2023-09-08T17:47:33.707Z,43.30
2023-09-08T17:50:01.659Z,43.50
2023-09-08T17:52:29.650Z,43.80
2023-09-08T17:54:58.604Z,44.00
2023-09-08T17:57:26.529Z,44.30
2023-09-08T17:59:54.610Z,43.90
2023-09-08T18:02:22.648Z,43.80
2023-09-08T18:04:50.666Z,43.90
2023-09-08T18:07:18.809Z,43.80
2023-09-08T18:09:46.703Z,43.90
2023-09-08T18:12:14.762Z,44.60
2023-09-08T18:14:42.650Z,44.50
2023-09-08T18:17:11.067Z,45.50
2023-09-08T18:19:39.525Z,45.80
2023-09-08T18:22:08.767Z,46.30
2023-09-08T18:24:36.687Z,46.30
2023-09-08T18:27:04.916Z,46.60
2023-09-08T18:29:34.318Z,46.20
2023-09-08T18:32:02.353Z,46.10
2023-09-08T18:34:30.560Z,46.90
2023-09-08T18:36:58.404Z,46.80
2023-09-08T18:39:26.312Z,47.10
2023-09-08T18:41:54.478Z,47.40
2023-09-08T18:44:23.050Z,47.40
2023-09-08T18:46:50.944Z,47.70
2023-09-08T18:49:20.714Z,48.30
2023-09-08T18:51:48.815Z,47.90
2023-09-08T18:54:16.750Z,48.50
2023-09-08T18:56:44.540Z,48.90
2023-09-08T18:59:12.353Z,48.90
2023-09-08T19:01:40.114Z,48.80
2023-09-08T19:04:08.015Z,49.20
2023-09-08T19:06:35.874Z,49.10
2023-09-08T19:09:04.881Z,49.30
2023-09-08T19:11:32.754Z,48.90
2023-09-08T19:14:00.674Z,49.20
2023-09-08T19:16:28.784Z,49.20
2023-09-08T19:18:56.616Z,49.70
2023-09-08T19:21:24.630Z,49.50
2023-09-08T19:23:52.489Z,49.40
2023-09-08T19:26:20.313Z,50.00
2023-09-08T19:28:48.152Z,50.80
2023-09-08T19:31:16.018Z,51.10
2023-09-08T19:33:43.919Z,51.10
2023-09-08T19:36:11.996Z,50.70
2023-09-08T19:38:39.750Z,50.70
2023-09-08T19:41:07.793Z,50.80
2023-09-08T19:43:35.879Z,50.70
2023-09-08T19:46:07.440Z,50.60
2023-09-08T19:48:36.307Z,51.00
2023-09-08T19:51:04.974Z,50.10
2023-09-08T19:53:33.029Z,50.30
2023-09-08T19:56:00.932Z,50.30
2023-09-08T19:58:31.702Z,51.50
2023-09-08T20:01:11.571Z,52.20
2023-09-08T20:03:40.727Z,55.40
2023-09-08T20:06:09.072Z,54.20
2023-09-08T20:08:37.400Z,55.40
2023-09-08T20:11:05.188Z,57.20
2023-09-08T20:13:33.049Z,56.60
2023-09-08T20:16:08.541Z,57.40
2023-09-08T20:18:37.716Z,57.70
2023-09-08T20:21:08.651Z,56.30
2023-09-08T20:23:37.018Z,57.10
2023-09-08T20:26:04.905Z,56.80
2023-09-08T20:28:33.488Z,59.70
2023-09-08T20:31:15.624Z,59.40
2023-09-08T20:33:45.821Z,59.70
2023-09-08T20:36:15.053Z,60.30
2023-09-08T20:38:44.184Z,59.90
2023-09-08T20:41:12.972Z,59.30
2023-09-08T20:43:41.545Z,61.20
2023-09-08T20:46:09.993Z,60.80
2023-09-08T20:48:39.819Z,59.80
2023-09-08T20:51:07.612Z,60.00
2023-09-08T20:53:37.643Z,59.90
2023-09-08T20:56:10.754Z,60.60
2023-09-08T20:58:39.624Z,60.10
2023-09-08T21:01:07.627Z,60.00
2023-09-08T21:03:37.635Z,60.40
2023-09-08T21:06:06.193Z,60.50
2023-09-08T21:08:34.547Z,61.00
2023-09-08T21:11:04.026Z,61.10
2023-09-08T21:13:32.253Z,61.60
2023-09-08T21:16:00.272Z,61.90
2023-09-08T21:18:28.196Z,62.20
2023-09-08T21:20:56.144Z,61.40
2023-09-08T21:23:23.942Z,62.20
2023-09-08T21:25:52.078Z,61.40
2023-09-08T21:28:19.910Z,60.90
2023-09-08T21:30:47.750Z,62.30
2023-09-08T21:33:15.734Z,61.60
2023-09-08T21:35:43.685Z,61.40
2023-09-08T21:38:11.517Z,61.50
2023-09-08T21:40:42.445Z,61.50
2023-09-08T21:43:10.304Z,62.10
2023-09-08T21:45:38.134Z,61.80
2023-09-08T21:48:06.124Z,61.90
2023-09-08T21:50:34.028Z,62.00
2023-09-08T21:53:01.874Z,61.70
2023-09-08T21:55:29.672Z,61.80
2023-09-08T21:57:57.622Z,61.90
2023-09-08T22:00:26.790Z,62.30
2023-09-08T22:02:54.659Z,62.70
2023-09-08T22:05:22.736Z,62.60
2023-09-08T22:07:50.593Z,62.30
2023-09-08T22:10:18.485Z,62.20
2023-09-08T22:12:46.712Z,62.90
2023-09-08T22:15:14.746Z,62.40
2023-09-08T22:17:42.624Z,62.60
2023-09-08T22:20:15.287Z,62.80
2023-09-08T22:22:44.187Z,62.70
2023-09-08T22:25:13.782Z,62.40
2023-09-08T22:27:41.714Z,63.50
2023-09-08T22:30:10.036Z,63.00
2023-09-08T22:32:38.406Z,63.00
2023-09-08T22:35:06.482Z,62.70
2023-09-08T22:37:36.052Z,64.20
2023-09-08T22:40:07.400Z,63.20
2023-09-08T22:42:35.423Z,63.10
2023-09-08T22:45:03.610Z,63.30
2023-09-08T22:47:31.725Z,63.40
2023-09-08T22:50:07.997Z,63.10
2023-09-08T22:52:36.251Z,63.50
2023-09-08T22:55:23.101Z,63.30
2023-09-08T22:57:53.243Z,63.10
2023-09-08T23:00:21.502Z,64.00
2023-09-08T23:02:50.042Z,63.60
2023-09-08T23:05:18.163Z,63.80
2023-09-08T23:07:46.290Z,63.40
2023-09-08T23:10:14.282Z,63.80
2023-09-08T23:12:42.536Z,64.00
2023-09-08T23:15:11.464Z,64.10
2023-09-08T23:17:39.918Z,63.80
2023-09-08T23:20:16.931Z,63.60
2023-09-08T23:22:45.771Z,63.90
2023-09-08T23:25:13.919Z,64.00
2023-09-08T23:27:41.947Z,64.00
2023-09-08T23:30:10.609Z,64.50
2023-09-08T23:32:38.336Z,64.20
2023-09-08T23:35:07.412Z,66.00
2023-09-08T23:37:35.315Z,64.50
2023-09-08T23:40:06.252Z,65.00
2023-09-08T23:42:33.976Z,64.40
2023-09-08T23:45:01.733Z,64.50
2023-09-08T23:47:29.516Z,64.40
2023-09-08T23:49:57.783Z,64.60
2023-09-08T23:52:25.728Z,65.00
2023-09-08T23:54:53.906Z,64.70
2023-09-08T23:57:21.821Z,64.70
2023-09-08T23:59:50.301Z,64.50
